createdAt,value
2022-08-07T00:00:31.708Z,1017.64
2022-08-07T00:01:44.521Z,1017.59
2022-08-07T00:02:36.710Z,1017.64
2022-08-07T00:03:36.650Z,1017.59
2022-08-07T00:04:31.510Z,1017.59
2022-08-07T00:05:31.589Z,1017.58
2022-08-07T00:06:33.496Z,1017.58
2022-08-07T00:07:40.843Z,1017.54
2022-08-07T00:08:33.145Z,1017.58
2022-08-07T00:09:34.323Z,1017.54
2022-08-07T00:10:33.929Z,1017.54
2022-08-07T00:11:33.946Z,1017.53
2022-08-07T00:12:33.767Z,1017.55
2022-08-07T00:13:32.985Z,1017.48
2022-08-07T00:14:33.119Z,1017.52
2022-08-07T00:15:36.119Z,1017.48
2022-08-07T00:16:34.497Z,1017.51
2022-08-07T00:17:35.258Z,1017.43
2022-08-07T00:18:33.855Z,1017.45
2022-08-07T00:20:01.088Z,1017.50
2022-08-07T00:20:35.441Z,1017.46
2022-08-07T00:21:56.269Z,1017.44
2022-08-07T00:22:35.768Z,1017.42
2022-08-07T00:23:35.441Z,1017.41
2022-08-07T00:24:35.435Z,1017.47
2022-08-07T00:25:37.458Z,1017.47
2022-08-07T00:26:48.807Z,1017.41
2022-08-07T00:27:52.425Z,1017.44
2022-08-07T00:28:45.695Z,1017.47
2022-08-07T00:29:37.436Z,1017.41
2022-08-07T00:30:35.813Z,1017.43
2022-08-07T00:31:38.060Z,1017.38
2022-08-07T00:32:37.145Z,1017.43
2022-08-07T00:33:36.398Z,1017.36
2022-08-07T00:34:37.443Z,1017.41
2022-08-07T00:35:36.842Z,1017.40
2022-08-07T00:36:38.577Z,1017.38
2022-08-07T00:37:47.731Z,1017.32
2022-08-07T00:38:39.146Z,1017.31
2022-08-07T00:39:37.661Z,1017.32
2022-08-07T00:40:40.413Z,1017.37
2022-08-07T00:41:53.043Z,1017.37
2022-08-07T00:42:39.062Z,1017.34
2022-08-07T00:44:00.198Z,1017.38
2022-08-07T00:44:41.260Z,1017.37
2022-08-07T00:45:38.633Z,1017.38
2022-08-07T00:46:38.736Z,1017.41
2022-08-07T00:48:09.912Z,1017.39
2022-08-07T00:48:42.201Z,1017.38
2022-08-07T00:50:21.367Z,1017.38
2022-08-07T00:50:46.355Z,1017.43
2022-08-07T00:51:58.236Z,1017.39
2022-08-07T00:52:40.618Z,1017.40
2022-08-07T00:53:50.182Z,1017.39
2022-08-07T00:54:40.974Z,1017.37
2022-08-07T00:56:03.403Z,1017.41
2022-08-07T00:56:41.342Z,1017.40
2022-08-07T00:57:44.549Z,1017.47
2022-08-07T00:58:41.699Z,1017.38
2022-08-07T00:59:40.953Z,1017.44
2022-08-07T01:00:53.420Z,1017.45
2022-08-07T01:01:44.606Z,1017.48
2022-08-07T01:02:41.439Z,1017.48
2022-08-07T01:03:57.350Z,1017.42
2022-08-07T01:04:43.123Z,1017.45
2022-08-07T01:05:42.946Z,1017.40
2022-08-07T01:06:43.179Z,1017.43
2022-08-07T01:07:42.297Z,1017.44
2022-08-07T01:08:51.563Z,1017.44
2022-08-07T01:10:05.812Z,1017.42
2022-08-07T01:10:47.686Z,1017.42
2022-08-07T01:12:09.829Z,1017.41
2022-08-07T01:12:53.881Z,1017.37
2022-08-07T01:13:46.729Z,1017.40
2022-08-07T01:14:45.449Z,1017.34
2022-08-07T01:16:05.111Z,1017.36
2022-08-07T01:16:47.273Z,1017.33
2022-08-07T01:17:44.462Z,1017.35
2022-08-07T01:18:44.949Z,1017.31
2022-08-07T01:19:44.997Z,1017.39
2022-08-07T01:20:45.538Z,1017.38
2022-08-07T01:21:45.961Z,1017.40
2022-08-07T01:22:46.897Z,1017.41
2022-08-07T01:23:46.677Z,1017.37
2022-08-07T01:24:47.550Z,1017.40
2022-08-07T01:25:55.244Z,1017.41
2022-08-07T01:26:51.555Z,1017.38
2022-08-07T01:27:51.110Z,1017.43
2022-08-07T01:28:48.492Z,1017.41
2022-08-07T01:29:46.175Z,1017.41
2022-08-07T01:30:46.332Z,1017.40
2022-08-07T01:31:48.669Z,1017.38
2022-08-07T01:32:47.483Z,1017.42
2022-08-07T01:33:55.461Z,1017.40
2022-08-07T01:34:49.191Z,1017.39
2022-08-07T01:35:53.629Z,1017.47
2022-08-07T01:36:52.644Z,1017.36
2022-08-07T01:37:48.519Z,1017.40
2022-08-07T01:38:47.718Z,1017.45
2022-08-07T01:39:48.500Z,1017.45
2022-08-07T01:40:48.958Z,1017.43
2022-08-07T01:41:55.246Z,1017.38
2022-08-07T01:42:57.350Z,1017.43
2022-08-07T01:43:49.543Z,1017.38
2022-08-07T01:44:48.663Z,1017.44
2022-08-07T01:45:49.477Z,1017.43
2022-08-07T01:46:49.980Z,1017.40
2022-08-07T01:48:19.897Z,1017.42
2022-08-07T01:48:50.958Z,1017.44
2022-08-07T01:49:49.448Z,1017.48
2022-08-07T01:50:50.618Z,1017.46
2022-08-07T01:52:02.440Z,1017.51
2022-08-07T01:52:54.962Z,1017.53
2022-08-07T01:54:09.999Z,1017.47
2022-08-07T01:54:51.245Z,1017.41
2022-08-07T01:55:50.389Z,1017.47
2022-08-07T01:56:51.461Z,1017.53
2022-08-07T01:58:05.900Z,1017.52
2022-08-07T01:58:51.901Z,1017.50
2022-08-07T01:59:51.080Z,1017.51
2022-08-07T02:00:52.046Z,1017.52
2022-08-07T02:02:00.035Z,1017.50
2022-08-07T02:03:18.387Z,1017.51
2022-08-07T02:03:53.494Z,1017.53
2022-08-07T02:04:56.300Z,1017.55
2022-08-07T02:06:01.015Z,1017.55
2022-08-07T02:06:53.259Z,1017.56
2022-08-07T02:07:52.633Z,1017.53
2022-08-07T02:08:54.187Z,1017.55
2022-08-07T02:09:58.563Z,1017.55
2022-08-07T02:10:57.875Z,1017.52
2022-08-07T02:12:03.572Z,1017.52
2022-08-07T02:12:54.324Z,1017.55
2022-08-07T02:13:58.312Z,1017.61
2022-08-07T02:14:54.594Z,1017.50
2022-08-07T02:15:54.001Z,1017.50
2022-08-07T02:16:54.969Z,1017.56
2022-08-07T02:17:54.210Z,1017.58
2022-08-07T02:18:54.407Z,1017.58
2022-08-07T02:20:07.846Z,1017.57
2022-08-07T02:20:55.814Z,1017.56
2022-08-07T02:21:55.902Z,1017.58
2022-08-07T02:22:55.320Z,1017.55
2022-08-07T02:23:55.144Z,1017.51
2022-08-07T02:24:55.973Z,1017.51
2022-08-07T02:26:30.570Z,1017.56
2022-08-07T02:26:57.467Z,1017.53
2022-08-07T02:27:55.847Z,1017.57
2022-08-07T02:28:56.098Z,1017.53
2022-08-07T02:29:56.297Z,1017.61
2022-08-07T02:30:56.443Z,1017.60
2022-08-07T02:31:56.633Z,1017.55
2022-08-07T02:33:07.258Z,1017.64
2022-08-07T02:34:02.809Z,1017.62
2022-08-07T02:35:00.730Z,1017.66
2022-08-07T02:36:30.864Z,1017.63
2022-08-07T02:36:59.993Z,1017.54
2022-08-07T02:37:57.808Z,1017.64
2022-08-07T02:38:57.962Z,1017.62
2022-08-07T02:40:02.475Z,1017.63
2022-08-07T02:40:59.476Z,1017.60
2022-08-07T02:41:59.514Z,1017.61
2022-08-07T02:42:58.875Z,1017.59
2022-08-07T02:43:59.044Z,1017.60
2022-08-07T02:44:59.187Z,1017.57
2022-08-07T02:46:01.908Z,1017.57
2022-08-07T02:47:00.841Z,1017.58
2022-08-07T02:48:01.866Z,1017.61
2022-08-07T02:48:59.903Z,1017.56
2022-08-07T02:50:00.612Z,1017.58
2022-08-07T02:51:00.193Z,1017.55
2022-08-07T02:52:00.335Z,1017.52
2022-08-07T02:53:00.811Z,1017.50
2022-08-07T02:54:01.479Z,1017.52
2022-08-07T02:55:00.956Z,1017.50
2022-08-07T02:56:03.236Z,1017.55
2022-08-07T02:57:01.979Z,1017.59
2022-08-07T02:58:01.348Z,1017.59
2022-08-07T02:59:01.509Z,1017.48
2022-08-07T03:00:04.870Z,1017.53
2022-08-07T03:01:03.139Z,1017.48
2022-08-07T03:02:02.543Z,1017.59
2022-08-07T03:03:06.072Z,1017.58
2022-08-07T03:04:03.517Z,1017.53
2022-08-07T03:05:05.044Z,1017.57
2022-08-07T03:06:02.763Z,1017.55
2022-08-07T03:07:07.149Z,1017.53
2022-08-07T03:08:07.166Z,1017.60
2022-08-07T03:09:04.330Z,1017.59
2022-08-07T03:10:03.547Z,1017.61
2022-08-07T03:11:03.789Z,1017.59
2022-08-07T03:12:03.961Z,1017.63
2022-08-07T03:13:04.493Z,1017.61
2022-08-07T03:14:04.358Z,1017.59
2022-08-07T03:15:07.963Z,1017.60
2022-08-07T03:16:05.481Z,1017.61
2022-08-07T03:17:04.874Z,1017.63
2022-08-07T03:18:05.058Z,1017.61
2022-08-07T03:19:06.221Z,1017.61
2022-08-07T03:20:05.349Z,1017.64
2022-08-07T03:21:08.655Z,1017.62
2022-08-07T03:22:05.613Z,1017.74
2022-08-07T03:23:06.785Z,1017.69
2022-08-07T03:24:20.659Z,1017.69
2022-08-07T03:25:07.088Z,1017.62
2022-08-07T03:26:06.263Z,1017.68
2022-08-07T03:27:08.869Z,1017.63
2022-08-07T03:28:09.556Z,1017.61
2022-08-07T03:29:11.191Z,1017.70
2022-08-07T03:30:07.895Z,1017.65
2022-08-07T03:31:07.022Z,1017.66
2022-08-07T03:32:07.222Z,1017.63
2022-08-07T03:33:08.654Z,1017.72
2022-08-07T03:34:07.578Z,1017.69
2022-08-07T03:35:17.855Z,1017.70
2022-08-07T03:36:10.493Z,1017.66
2022-08-07T03:37:12.273Z,1017.70
2022-08-07T03:38:08.332Z,1017.70
2022-08-07T03:39:09.003Z,1017.62
2022-08-07T03:40:16.738Z,1017.61
2022-08-07T03:41:10.436Z,1017.56
2022-08-07T03:42:09.498Z,1017.65
2022-08-07T03:43:13.815Z,1017.67
2022-08-07T03:44:10.384Z,1017.62
2022-08-07T03:45:10.489Z,1017.68
2022-08-07T03:46:18.196Z,1017.55
2022-08-07T03:47:14.512Z,1017.58
2022-08-07T03:48:11.376Z,1017.59
2022-08-07T03:49:10.987Z,1017.71
2022-08-07T03:50:11.320Z,1017.66
2022-08-07T03:51:10.467Z,1017.68
2022-08-07T03:52:22.276Z,1017.63
2022-08-07T03:53:11.860Z,1017.63
2022-08-07T03:54:36.324Z,1017.60
2022-08-07T03:55:12.349Z,1017.67
2022-08-07T03:56:13.622Z,1017.71
2022-08-07T03:57:11.672Z,1017.69
2022-08-07T03:59:04.806Z,1017.64
2022-08-07T03:59:13.681Z,1017.58
2022-08-07T04:00:12.372Z,1017.61
2022-08-07T04:01:13.949Z,1017.58
2022-08-07T04:02:13.499Z,1017.60
2022-08-07T04:03:14.076Z,1017.57
2022-08-07T04:04:17.097Z,1017.56
2022-08-07T04:05:13.355Z,1017.55
2022-08-07T04:06:38.419Z,1017.63
2022-08-07T04:07:17.392Z,1017.60
2022-08-07T04:08:16.266Z,1017.57
2022-08-07T04:09:15.737Z,1017.52
2022-08-07T04:10:15.650Z,1017.55
2022-08-07T04:12:23.604Z,1017.56
2022-08-07T04:12:23.897Z,1017.51
2022-08-07T04:13:16.497Z,1017.51
2022-08-07T04:14:37.631Z,1017.55
2022-08-07T04:15:17.017Z,1017.53
2022-08-07T04:16:15.241Z,1017.53
2022-08-07T04:17:20.223Z,1017.44
2022-08-07T04:18:56.976Z,1017.52
2022-08-07T04:19:17.589Z,1017.52
2022-08-07T04:20:16.151Z,1017.49
2022-08-07T04:21:16.563Z,1017.52
2022-08-07T04:22:17.791Z,1017.52
2022-08-07T04:23:19.197Z,1017.53
2022-08-07T04:24:34.215Z,1017.50
2022-08-07T04:25:18.997Z,1017.50
2022-08-07T04:26:21.934Z,1017.47
2022-08-07T04:27:20.509Z,1017.49
2022-08-07T04:28:18.614Z,1017.52
2022-08-07T04:29:17.780Z,1017.49
2022-08-07T04:30:21.341Z,1017.46
2022-08-07T04:31:20.031Z,1017.45
2022-08-07T04:32:27.205Z,1017.45
2022-08-07T04:33:20.012Z,1017.48
2022-08-07T04:34:27.399Z,1017.47
2022-08-07T04:35:20.514Z,1017.43
2022-08-07T04:36:26.020Z,1017.51
2022-08-07T04:37:20.740Z,1017.47
2022-08-07T04:38:19.521Z,1017.49
2022-08-07T04:39:25.507Z,1017.55
2022-08-07T04:40:21.806Z,1017.39
2022-08-07T04:41:22.002Z,1017.45
2022-08-07T04:42:20.198Z,1017.48
2022-08-07T04:43:20.360Z,1017.43
2022-08-07T04:44:20.497Z,1017.45
2022-08-07T04:45:57.733Z,1017.47
2022-08-07T04:46:26.065Z,1017.47
2022-08-07T04:47:56.709Z,1017.50
2022-08-07T04:48:22.291Z,1017.43
2022-08-07T04:49:25.592Z,1017.49
2022-08-07T04:50:22.276Z,1017.51
2022-08-07T04:51:21.663Z,1017.44
2022-08-07T04:52:25.146Z,1017.49
2022-08-07T04:53:40.201Z,1017.47
2022-08-07T04:54:29.915Z,1017.50
2022-08-07T04:58:12.969Z,1017.47
2022-08-07T04:58:14.294Z,1017.43
2022-08-07T04:58:14.864Z,1017.50
2022-08-07T04:58:49.804Z,1017.47
2022-08-07T05:00:11.221Z,1017.46
2022-08-07T05:00:30.028Z,1017.47
2022-08-07T05:01:30.198Z,1017.41
2022-08-07T05:02:24.836Z,1017.35
2022-08-07T05:03:59.957Z,1017.32
2022-08-07T05:04:26.375Z,1017.33
2022-08-07T05:05:53.292Z,1017.26
2022-08-07T05:06:28.152Z,1017.19
2022-08-07T05:07:30.391Z,1016.94
2022-08-07T05:08:59.307Z,1016.80
2022-08-07T05:09:43.170Z,1016.85
2022-08-07T05:10:26.287Z,1016.96
2022-08-07T05:11:26.329Z,1016.90
2022-08-07T05:12:27.732Z,1016.96
2022-08-07T05:14:52.508Z,1016.95
2022-08-07T05:14:54.136Z,1016.93
2022-08-07T05:15:28.015Z,1016.99
2022-08-07T05:16:27.039Z,1016.96
2022-08-07T05:17:52.658Z,1016.95
2022-08-07T05:18:29.598Z,1016.87
2022-08-07T05:19:44.062Z,1016.85
2022-08-07T05:20:28.023Z,1016.86
2022-08-07T05:22:00.856Z,1016.89
2022-08-07T05:22:29.017Z,1016.87
2022-08-07T05:23:29.124Z,1016.89
2022-08-07T05:24:30.375Z,1016.86
2022-08-07T05:26:10.938Z,1016.86
2022-08-07T05:26:28.055Z,1016.82
2022-08-07T05:28:16.751Z,1016.82
2022-08-07T05:28:29.707Z,1016.83
2022-08-07T05:29:39.000Z,1016.87
2022-08-07T05:30:32.406Z,1016.74
2022-08-07T05:31:34.599Z,1016.83
2022-08-07T05:32:30.164Z,1016.83
2022-08-07T05:33:29.327Z,1016.78
2022-08-07T05:34:29.503Z,1016.79
2022-08-07T05:35:33.248Z,1016.75
2022-08-07T05:36:30.384Z,1016.70
2022-08-07T05:37:40.918Z,1016.71
2022-08-07T05:39:00.225Z,1016.71
2022-08-07T05:40:05.098Z,1016.69
2022-08-07T05:40:31.675Z,1016.72
2022-08-07T05:42:00.648Z,1016.71
2022-08-07T05:42:33.736Z,1016.64
2022-08-07T05:43:49.622Z,1016.59
2022-08-07T05:44:33.018Z,1016.58
2022-08-07T05:45:47.293Z,1016.46
2022-08-07T05:46:33.517Z,1016.46
2022-08-07T05:47:38.692Z,1016.48
2022-08-07T05:48:33.083Z,1016.41
2022-08-07T05:49:40.485Z,1016.45
2022-08-07T05:50:33.549Z,1016.44
2022-08-07T05:51:33.521Z,1016.45
2022-08-07T05:52:33.889Z,1016.44
2022-08-07T05:54:14.150Z,1016.40
2022-08-07T05:54:53.575Z,1016.42
2022-08-07T05:56:03.511Z,1016.39
2022-08-07T05:56:35.519Z,1016.25
2022-08-07T05:57:34.694Z,1016.24
2022-08-07T05:58:36.695Z,1016.27
2022-08-07T05:59:46.556Z,1016.24
2022-08-07T06:00:35.353Z,1016.24
2022-08-07T06:01:35.804Z,1016.18
2022-08-07T06:02:34.746Z,1016.21
2022-08-07T06:03:56.438Z,1016.12
2022-08-07T06:04:35.993Z,1016.11
2022-08-07T06:05:35.192Z,1016.03
2022-08-07T06:06:36.033Z,1015.95
2022-08-07T06:08:13.648Z,1015.93
2022-08-07T06:08:39.238Z,1015.92
2022-08-07T06:10:03.148Z,1015.84
2022-08-07T06:10:37.119Z,1015.82
2022-08-07T06:11:36.538Z,1015.78
2022-08-07T06:12:36.560Z,1015.68
2022-08-07T06:14:10.461Z,1015.70
2022-08-07T06:14:37.862Z,1015.73
2022-08-07T06:15:42.226Z,1015.72
2022-08-07T06:16:38.120Z,1015.65
2022-08-07T06:17:38.532Z,1015.63
2022-08-07T06:18:37.521Z,1015.57
2022-08-07T06:19:52.253Z,1015.57
2022-08-07T06:20:50.240Z,1015.54
2022-08-07T06:22:16.733Z,1015.31
2022-08-07T06:22:40.206Z,1014.81
2022-08-07T06:24:37.748Z,1014.35
2022-08-07T06:24:53.504Z,1014.38
2022-08-07T06:25:40.769Z,1014.56
2022-08-07T06:26:39.979Z,1014.60
2022-08-07T06:27:44.390Z,1014.63
2022-08-07T06:28:40.388Z,1014.59
2022-08-07T06:29:40.048Z,1014.65
2022-08-07T06:30:45.396Z,1014.72
2022-08-07T06:31:49.904Z,1014.66
2022-08-07T06:32:42.056Z,1014.79
2022-08-07T06:33:41.035Z,1014.71
2022-08-07T06:34:45.173Z,1014.64
2022-08-07T06:35:47.610Z,1014.65
2022-08-07T06:36:43.037Z,1014.61
2022-08-07T06:37:43.603Z,1014.67
2022-08-07T06:38:51.148Z,1014.57
2022-08-07T06:40:17.435Z,1014.58
2022-08-07T06:40:45.719Z,1014.54
2022-08-07T06:42:00.677Z,1014.51
2022-08-07T06:42:44.047Z,1014.52
2022-08-07T06:43:46.107Z,1014.50
2022-08-07T06:44:42.752Z,1014.50
2022-08-07T06:45:44.212Z,1014.51
2022-08-07T06:46:43.014Z,1014.45
2022-08-07T06:47:48.033Z,1014.44
2022-08-07T06:48:44.463Z,1014.44
2022-08-07T06:49:52.450Z,1014.49
2022-08-07T06:50:47.970Z,1014.46
2022-08-07T06:51:50.142Z,1014.45
2022-08-07T06:52:45.098Z,1014.35
2022-08-07T06:54:11.778Z,1014.30
2022-08-07T06:55:31.492Z,1014.31
2022-08-07T06:56:00.472Z,1014.29
2022-08-07T06:56:49.527Z,1014.06
2022-08-07T06:57:52.106Z,1013.37
2022-08-07T07:00:13.970Z,1012.43
2022-08-07T07:00:14.841Z,1012.65
2022-08-07T07:00:46.476Z,1012.31
2022-08-07T07:01:48.830Z,1011.99
2022-08-07T07:02:54.613Z,1011.59
2022-08-07T07:03:48.250Z,1010.84
2022-08-07T07:04:55.102Z,1010.18
2022-08-07T07:06:02.840Z,1009.46
2022-08-07T07:07:00.179Z,1008.77
2022-08-07T07:07:59.880Z,1008.31
2022-08-07T07:08:47.963Z,1008.09
2022-08-07T07:09:47.150Z,1008.31
2022-08-07T07:10:57.034Z,1008.95
2022-08-07T07:12:07.848Z,1009.55
2022-08-07T07:12:50.225Z,1009.93
2022-08-07T07:13:58.264Z,1010.30
2022-08-07T07:14:49.038Z,1010.60
2022-08-07T07:15:51.772Z,1010.86
2022-08-07T07:16:51.162Z,1010.87
2022-08-07T07:17:50.363Z,1011.01
2022-08-07T07:18:48.806Z,1011.24
2022-08-07T07:19:57.460Z,1011.44
2022-08-07T07:20:50.551Z,1011.59
2022-08-07T07:22:12.318Z,1011.77
2022-08-07T07:24:06.342Z,1011.91
2022-08-07T07:24:09.133Z,1012.03
2022-08-07T07:24:58.507Z,1012.22
2022-08-07T07:26:34.132Z,1012.21
2022-08-07T07:26:52.574Z,1012.38
2022-08-07T07:27:56.071Z,1012.45
2022-08-07T07:29:39.318Z,1012.31
2022-08-07T07:30:07.486Z,1011.96
2022-08-07T07:30:51.920Z,1011.30
2022-08-07T07:31:51.051Z,1010.83
2022-08-07T07:32:52.062Z,1010.46
2022-08-07T07:33:56.435Z,1009.81
2022-08-07T07:34:52.512Z,1008.99
2022-08-07T07:36:04.004Z,1008.60
2022-08-07T07:36:54.122Z,1008.84
2022-08-07T07:38:02.274Z,1008.83
2022-08-07T07:38:54.226Z,1009.20
2022-08-07T07:39:55.395Z,1009.52
2022-08-07T07:40:52.565Z,1009.49
2022-08-07T07:42:13.693Z,1009.42
2022-08-07T07:42:55.604Z,1009.67
2022-08-07T07:44:17.917Z,1009.92
2022-08-07T07:44:54.164Z,1010.16
2022-08-07T07:46:38.023Z,1010.43
2022-08-07T07:47:04.241Z,1010.65
2022-08-07T07:47:54.781Z,1010.84
2022-08-07T07:48:59.870Z,1011.03
2022-08-07T07:50:32.964Z,1011.09
2022-08-07T07:50:55.078Z,1011.18
2022-08-07T07:51:57.421Z,1011.25
2022-08-07T07:52:55.061Z,1011.26
2022-08-07T07:53:55.613Z,1011.41
2022-08-07T07:54:54.829Z,1011.56
2022-08-07T07:56:00.495Z,1011.62
2022-08-07T07:56:57.481Z,1011.71
2022-08-07T07:57:58.457Z,1011.80
2022-08-07T07:58:55.558Z,1011.83
2022-08-07T07:59:55.797Z,1011.93
2022-08-07T08:00:56.563Z,1011.95
2022-08-07T08:02:03.602Z,1011.99
2022-08-07T08:03:04.570Z,1011.96
2022-08-07T08:04:11.128Z,1011.96
2022-08-07T08:04:57.752Z,1012.05
2022-08-07T08:05:57.565Z,1012.07
2022-08-07T08:07:02.688Z,1012.15
2022-08-07T08:08:00.742Z,1012.14
2022-08-07T08:08:58.067Z,1012.17
2022-08-07T08:10:04.789Z,1012.24
2022-08-07T08:10:58.950Z,1012.21
2022-08-07T08:12:02.506Z,1012.20
2022-08-07T08:12:59.905Z,1012.24
2022-08-07T08:13:58.615Z,1012.24
2022-08-07T08:14:59.568Z,1012.30
2022-08-07T08:16:00.581Z,1012.32
2022-08-07T08:17:55.980Z,1012.35
2022-08-07T08:18:17.223Z,1012.31
2022-08-07T08:19:09.552Z,1012.39
2022-08-07T08:20:17.916Z,1012.29
2022-08-07T08:21:00.661Z,1012.36
2022-08-07T08:22:03.343Z,1012.40
2022-08-07T08:23:00.102Z,1012.39
2022-08-07T08:24:01.290Z,1012.36
2022-08-07T08:25:18.691Z,1012.37
2022-08-07T08:26:06.659Z,1012.33
2022-08-07T08:27:06.002Z,1012.35
2022-08-07T08:28:03.873Z,1012.35
2022-08-07T08:29:01.197Z,1012.42
2022-08-07T08:30:03.836Z,1012.37
2022-08-07T08:31:01.477Z,1012.36
2022-08-07T08:32:18.386Z,1012.40
2022-08-07T08:33:03.012Z,1012.41
2022-08-07T08:34:02.006Z,1012.52
2022-08-07T08:35:02.135Z,1012.49
2022-08-07T08:36:02.337Z,1012.46
2022-08-07T08:37:02.529Z,1012.50
2022-08-07T08:38:03.446Z,1012.46
2022-08-07T08:39:03.032Z,1012.58
2022-08-07T08:40:03.223Z,1012.60
2022-08-07T08:41:03.593Z,1012.52
2022-08-07T08:42:04.075Z,1012.58
2022-08-07T08:43:03.710Z,1012.54
2022-08-07T08:44:04.603Z,1012.61
2022-08-07T08:45:05.083Z,1012.58
2022-08-07T08:46:04.595Z,1012.58
2022-08-07T08:47:04.501Z,1012.66
2022-08-07T08:48:04.720Z,1012.58
2022-08-07T08:49:05.198Z,1012.61
2022-08-07T08:50:06.066Z,1012.68
2022-08-07T08:51:14.269Z,1012.62
2022-08-07T08:52:14.293Z,1012.59
2022-08-07T08:53:07.609Z,1012.56
2022-08-07T08:54:05.836Z,1012.58
2022-08-07T08:55:07.798Z,1012.58
2022-08-07T08:56:06.135Z,1012.54
2022-08-07T08:57:06.360Z,1012.55
2022-08-07T08:58:06.521Z,1012.50
2022-08-07T08:59:13.800Z,1012.52
2022-08-07T09:00:08.583Z,1012.52
2022-08-07T09:01:15.148Z,1012.49
2022-08-07T09:02:08.698Z,1012.44
2022-08-07T09:03:07.702Z,1012.41
2022-08-07T09:04:07.600Z,1012.39
2022-08-07T09:05:07.692Z,1012.39
2022-08-07T09:06:08.592Z,1012.42
2022-08-07T09:07:11.133Z,1012.41
2022-08-07T09:08:08.268Z,1012.45
2022-08-07T09:09:09.556Z,1012.43
2022-08-07T09:10:09.580Z,1012.35
2022-08-07T09:11:08.809Z,1012.28
2022-08-07T09:12:30.148Z,1012.27
2022-08-07T09:13:11.072Z,1012.28
2022-08-07T09:14:09.654Z,1012.21
2022-08-07T09:16:21.617Z,1012.20
2022-08-07T09:16:23.001Z,1012.10
2022-08-07T09:17:11.013Z,1012.09
2022-08-07T09:18:15.701Z,1011.98
2022-08-07T09:19:44.759Z,1011.94
2022-08-07T09:20:24.992Z,1011.96
2022-08-07T09:21:13.870Z,1011.81
2022-08-07T09:24:27.262Z,1011.80
2022-08-07T09:24:30.374Z,1011.82
2022-08-07T09:24:34.081Z,1011.78
2022-08-07T09:25:17.452Z,1011.87
2022-08-07T09:26:17.228Z,1011.82
2022-08-07T09:27:13.495Z,1011.90
2022-08-07T09:30:01.390Z,1011.96
2022-08-07T09:30:03.416Z,1011.87
2022-08-07T09:30:14.011Z,1011.89
2022-08-07T09:31:12.642Z,1011.96
2022-08-07T09:32:18.482Z,1011.99
2022-08-07T09:33:16.666Z,1011.98
2022-08-07T09:34:14.130Z,1012.05
2022-08-07T09:36:01.327Z,1012.00
2022-08-07T09:36:14.446Z,1011.99
2022-08-07T09:37:14.110Z,1011.93
2022-08-07T09:38:13.882Z,1011.97
2022-08-07T09:39:52.504Z,1011.97
2022-08-07T09:40:17.914Z,1011.97
2022-08-07T09:41:14.391Z,1011.97
2022-08-07T09:42:17.301Z,1011.96
2022-08-07T09:43:18.016Z,1011.95
2022-08-07T09:44:19.137Z,1011.91
2022-08-07T09:47:24.253Z,1012.07
2022-08-07T09:47:49.910Z,1011.92
2022-08-07T09:47:55.117Z,1012.01
2022-08-07T09:48:19.190Z,1011.99
2022-08-07T09:49:59.734Z,1012.01
2022-08-07T09:50:18.930Z,1011.98
2022-08-07T09:52:10.099Z,1011.98
2022-08-07T09:52:34.057Z,1012.01
2022-08-07T09:53:18.633Z,1012.02
2022-08-07T09:54:16.734Z,1011.97
2022-08-07T09:55:29.384Z,1011.99
2022-08-07T09:56:19.695Z,1011.96
2022-08-07T09:57:19.109Z,1011.98
2022-08-07T09:58:17.416Z,1011.97
2022-08-07T09:59:18.863Z,1011.90
2022-08-07T10:00:18.833Z,1011.93
2022-08-07T10:01:51.081Z,1011.84
2022-08-07T10:02:19.606Z,1011.94
2022-08-07T10:04:06.372Z,1011.91
2022-08-07T10:04:32.544Z,1011.85
2022-08-07T10:05:21.264Z,1011.90
2022-08-07T10:06:19.846Z,1011.80
2022-08-07T10:07:24.575Z,1011.84
2022-08-07T10:08:20.624Z,1011.80
2022-08-07T10:09:34.206Z,1011.74
2022-08-07T10:10:21.938Z,1011.76
2022-08-07T10:12:01.915Z,1011.73
2022-08-07T10:12:21.899Z,1011.65
2022-08-07T10:13:55.003Z,1011.67
2022-08-07T10:14:22.987Z,1011.69
2022-08-07T10:15:21.626Z,1011.60
2022-08-07T10:16:20.727Z,1011.56
2022-08-07T10:17:20.847Z,1011.66
2022-08-07T10:18:21.050Z,1011.60
2022-08-07T10:19:23.111Z,1011.69
2022-08-07T10:20:21.979Z,1011.53
2022-08-07T10:22:13.979Z,1011.58
2022-08-07T10:22:24.892Z,1011.54
2022-08-07T10:24:06.777Z,1011.52
2022-08-07T10:24:23.314Z,1011.50
2022-08-07T10:25:22.761Z,1011.41
2022-08-07T10:26:24.681Z,1011.41
2022-08-07T10:27:22.974Z,1011.39
2022-08-07T10:28:24.134Z,1011.38
2022-08-07T10:29:23.271Z,1011.27
2022-08-07T10:30:23.401Z,1011.27
2022-08-07T10:31:23.654Z,1011.21
2022-08-07T10:32:51.681Z,1011.25
2022-08-07T10:34:05.769Z,1011.24
2022-08-07T10:34:31.795Z,1011.21
2022-08-07T10:35:26.116Z,1011.24
2022-08-07T10:36:29.867Z,1011.17
2022-08-07T10:37:26.364Z,1011.21
2022-08-07T10:38:35.914Z,1011.23
2022-08-07T10:39:41.298Z,1011.29
2022-08-07T10:40:29.942Z,1011.22
2022-08-07T10:41:46.289Z,1011.34
2022-08-07T10:42:31.412Z,1011.33
2022-08-07T10:43:34.192Z,1011.31
2022-08-07T10:44:28.342Z,1011.29
2022-08-07T10:45:57.783Z,1011.29
2022-08-07T10:46:27.370Z,1011.33
2022-08-07T10:47:27.159Z,1011.33
2022-08-07T10:48:34.591Z,1011.36
2022-08-07T10:49:49.474Z,1011.26
2022-08-07T10:50:28.626Z,1011.29
2022-08-07T10:51:39.138Z,1011.19
2022-08-07T10:52:31.736Z,1011.23
2022-08-07T10:53:28.620Z,1011.12
2022-08-07T10:54:28.738Z,1011.08
2022-08-07T10:55:38.590Z,1011.08
2022-08-07T10:56:31.331Z,1011.04
2022-08-07T10:57:34.484Z,1011.02
2022-08-07T10:58:33.000Z,1010.87
2022-08-07T10:59:30.502Z,1010.78
2022-08-07T11:00:39.240Z,1010.61
2022-08-07T11:01:35.190Z,1010.51
2022-08-07T11:02:34.062Z,1010.33
2022-08-07T11:03:37.884Z,1010.25
2022-08-07T11:04:34.664Z,1010.14
2022-08-07T11:05:44.814Z,1010.08
2022-08-07T11:06:30.993Z,1009.95
2022-08-07T11:07:59.468Z,1009.78
2022-08-07T11:08:32.133Z,1009.71
2022-08-07T11:10:06.976Z,1009.69
2022-08-07T11:10:31.833Z,1009.56
2022-08-07T11:11:31.014Z,1009.56
2022-08-07T11:12:35.405Z,1009.56
2022-08-07T11:14:42.402Z,1009.66
2022-08-07T11:14:45.419Z,1009.56
2022-08-07T11:15:33.148Z,1009.60
2022-08-07T11:16:31.977Z,1009.63
2022-08-07T11:17:43.489Z,1009.66
2022-08-07T11:18:33.372Z,1009.68
2022-08-07T11:19:33.133Z,1009.67
2022-08-07T11:20:32.696Z,1009.82
2022-08-07T11:21:32.936Z,1009.82
2022-08-07T11:22:43.953Z,1009.87
2022-08-07T11:23:38.605Z,1009.84
2022-08-07T11:24:33.560Z,1009.88
2022-08-07T11:25:36.121Z,1009.87
2022-08-07T11:26:34.896Z,1009.92
2022-08-07T11:28:02.343Z,1009.96
2022-08-07T11:28:35.337Z,1010.03
2022-08-07T11:29:41.842Z,1009.95
2022-08-07T11:30:41.462Z,1010.03
2022-08-07T11:31:35.805Z,1010.03
2022-08-07T11:32:35.637Z,1010.02
2022-08-07T11:33:53.673Z,1010.07
2022-08-07T11:34:36.650Z,1010.03
2022-08-07T11:35:35.581Z,1010.04
2022-08-07T11:36:37.647Z,1010.01
2022-08-07T11:37:38.683Z,1009.99
2022-08-07T11:38:37.136Z,1010.07
2022-08-07T11:39:58.834Z,1010.04
2022-08-07T11:40:37.628Z,1010.06
2022-08-07T11:42:00.414Z,1010.06
2022-08-07T11:42:38.064Z,1009.99
2022-08-07T11:43:54.183Z,1009.99
2022-08-07T11:44:38.658Z,1009.97
2022-08-07T11:45:38.518Z,1009.92
2022-08-07T11:46:38.619Z,1009.87
2022-08-07T11:47:39.044Z,1009.88
2022-08-07T11:48:38.882Z,1009.94
2022-08-07T11:50:25.468Z,1009.93
2022-08-07T11:50:44.543Z,1009.96
2022-08-07T11:51:41.464Z,1009.95
2022-08-07T11:52:40.165Z,1010.00
2022-08-07T11:53:43.318Z,1009.90
2022-08-07T11:54:40.655Z,1009.91
2022-08-07T11:56:15.503Z,1009.96
2022-08-07T11:56:40.354Z,1009.96
2022-08-07T11:58:00.614Z,1009.90
2022-08-07T11:58:41.174Z,1009.85
2022-08-07T12:00:12.505Z,1009.86
2022-08-07T12:00:41.649Z,1009.79
2022-08-07T12:01:59.697Z,1009.80
2022-08-07T12:02:41.436Z,1009.75
2022-08-07T12:03:45.519Z,1009.79
2022-08-07T12:04:41.653Z,1009.74
2022-08-07T12:05:47.388Z,1009.73
2022-08-07T12:06:44.860Z,1009.69
2022-08-07T12:07:42.503Z,1009.66